createdAt,value
2022-10-26T00:01:45.283Z,97136.63
2022-10-26T00:04:46.744Z,97120.47
2022-10-26T00:07:48.667Z,97121.28
2022-10-26T00:10:50.085Z,97119.19
2022-10-26T00:13:51.563Z,97137.00
2022-10-26T00:16:53.009Z,97146.81
2022-10-26T00:19:54.982Z,97141.69
2022-10-26T00:22:56.423Z,97149.03
2022-10-26T00:25:58.256Z,97141.44
2022-10-26T00:28:59.725Z,97134.69
2022-10-26T00:32:01.192Z,97135.88
2022-10-26T00:35:15.826Z,97138.34
2022-10-26T00:38:24.739Z,97141.00
2022-10-26T00:41:31.119Z,97136.53
2022-10-26T00:44:55.561Z,97131.63
2022-10-26T00:47:59.829Z,97136.09
2022-10-26T00:51:03.033Z,97134.63
2022-10-26T00:54:06.619Z,97125.19
2022-10-26T00:57:08.052Z,97130.88
2022-10-26T01:00:09.733Z,97131.22
2022-10-26T01:03:11.239Z,97138.13
2022-10-26T01:06:13.485Z,97153.63
2022-10-26T01:09:15.526Z,97149.09
2022-10-26T01:12:16.927Z,97153.19
2022-10-26T01:15:18.715Z,97151.22
2022-10-26T01:18:24.766Z,97157.63
2022-10-26T01:21:26.140Z,97160.09
2022-10-26T01:24:46.850Z,97170.16
2022-10-26T01:27:51.086Z,97165.25
2022-10-26T01:30:54.479Z,97165.88
2022-10-26T01:33:59.927Z,97181.81
2022-10-26T01:37:09.101Z,97195.91
2022-10-26T01:40:31.083Z,97203.69
2022-10-26T01:43:35.708Z,97204.47
2022-10-26T01:46:39.821Z,97219.38
2022-10-26T01:49:55.448Z,97217.53
2022-10-26T01:52:56.863Z,97235.38
2022-10-26T01:55:58.915Z,97267.44
2022-10-26T01:59:13.601Z,97264.72
2022-10-26T02:02:15.004Z,97282.31
2022-10-26T02:05:16.413Z,97288.81
2022-10-26T02:08:28.504Z,97287.63
2022-10-26T02:11:34.000Z,97282.16
2022-10-26T02:14:50.100Z,97265.84
2022-10-26T02:17:53.472Z,97266.88
2022-10-26T02:20:57.717Z,97269.97
2022-10-26T02:23:59.412Z,97287.56
2022-10-26T02:27:01.680Z,97276.34
2022-10-26T02:30:04.867Z,97265.97
2022-10-26T02:33:07.677Z,97269.59
2022-10-26T02:36:12.156Z,97275.09
2022-10-26T02:39:16.392Z,97278.56
2022-10-26T02:42:18.514Z,97265.28
2022-10-26T02:45:25.231Z,97240.56
2022-10-26T02:48:26.599Z,97234.19
2022-10-26T02:51:35.048Z,97221.72
2022-10-26T02:54:42.276Z,97215.59
2022-10-26T02:57:47.349Z,97210.72
2022-10-26T03:00:49.471Z,97209.09
2022-10-26T03:03:50.937Z,97224.44
2022-10-26T03:06:53.511Z,97243.25
2022-10-26T03:09:54.884Z,97254.06
2022-10-26T03:12:56.268Z,97253.16
2022-10-26T03:15:57.764Z,97247.78
2022-10-26T03:18:59.184Z,97261.25
2022-10-26T03:22:00.540Z,97249.41
2022-10-26T03:25:02.211Z,97251.50
2022-10-26T03:28:04.855Z,97253.16
2022-10-26T03:31:08.604Z,97229.44
2022-10-26T03:34:09.991Z,97243.53
2022-10-26T03:37:11.536Z,97240.31
2022-10-26T03:40:12.997Z,97241.16
2022-10-26T03:43:14.401Z,97234.63
2022-10-26T03:46:15.856Z,97238.94
2022-10-26T03:49:17.214Z,97228.50
2022-10-26T03:52:18.639Z,97235.03
2022-10-26T03:55:20.000Z,97225.03
2022-10-26T03:58:21.553Z,97222.44
2022-10-26T04:01:23.040Z,97223.06
2022-10-26T04:04:24.537Z,97216.53
2022-10-26T04:07:26.073Z,97210.63
2022-10-26T04:10:27.544Z,97210.63
2022-10-26T04:13:28.940Z,97208.34
2022-10-26T04:16:33.283Z,97205.47
2022-10-26T04:19:34.997Z,97208.47
2022-10-26T04:22:36.591Z,97209.53
2022-10-26T04:25:38.245Z,97202.56
2022-10-26T04:28:39.652Z,97209.09
2022-10-26T04:34:48.350Z,97213.59
2022-10-26T04:37:49.781Z,97215.03
2022-10-26T04:40:51.358Z,97234.84
2022-10-26T04:43:52.731Z,97235.66
2022-10-26T04:46:54.221Z,97235.47
2022-10-26T04:49:55.653Z,97256.72
2022-10-26T04:52:57.447Z,97249.75
2022-10-26T04:55:59.658Z,97254.47
2022-10-26T04:59:01.135Z,97246.69
2022-10-26T05:02:02.774Z,97262.63
2022-10-26T05:08:10.713Z,97246.50
2022-10-26T05:11:12.181Z,97249.75
2022-10-26T05:14:13.628Z,97256.13
2022-10-26T05:17:15.050Z,97248.13
2022-10-26T05:20:16.452Z,97249.53
2022-10-26T05:23:18.698Z,97254.22
2022-10-26T05:26:20.282Z,97256.44
2022-10-26T05:29:21.963Z,97259.53
2022-10-26T05:32:23.460Z,97263.59
2022-10-26T05:35:25.862Z,97257.91
2022-10-26T05:41:33.713Z,97272.00
2022-10-26T05:44:35.144Z,97278.53
2022-10-26T05:47:43.183Z,97286.91
2022-10-26T05:50:44.663Z,97297.28
2022-10-26T05:53:46.204Z,97288.69
2022-10-26T05:56:47.788Z,97295.22
2022-10-26T05:59:49.421Z,97291.09
2022-10-26T06:03:19.307Z,97295.97
2022-10-26T06:06:22.146Z,97290.84
2022-10-26T06:09:23.673Z,97296.38
2022-10-26T06:12:26.603Z,97302.31
2022-10-26T06:15:28.461Z,97313.56
2022-10-26T06:18:51.180Z,97320.94
2022-10-26T06:22:12.944Z,97318.28
2022-10-26T06:25:33.037Z,97327.13
2022-10-26T06:28:34.523Z,97326.16
2022-10-26T06:31:36.188Z,97326.19
2022-10-26T06:34:51.515Z,97339.53
2022-10-26T06:37:58.563Z,97343.09
2022-10-26T06:41:06.284Z,97344.59
2022-10-26T06:44:12.283Z,97346.63
2022-10-26T06:47:21.295Z,97353.59
2022-10-26T06:50:38.449Z,97363.81
2022-10-26T06:53:43.936Z,97370.00
2022-10-26T06:56:46.132Z,97377.56
2022-10-26T06:59:56.680Z,97368.81
2022-10-26T07:02:59.030Z,97387.16
2022-10-26T07:06:00.500Z,97375.16
2022-10-26T07:09:01.924Z,97376.59
2022-10-26T07:12:03.452Z,97391.75
2022-10-26T07:15:05.576Z,97379.50
2022-10-26T07:18:07.881Z,97386.06
2022-10-26T07:21:10.395Z,97399.81
2022-10-26T07:24:11.812Z,97406.44
2022-10-26T07:27:13.254Z,97405.88
2022-10-26T07:30:14.690Z,97418.16
2022-10-26T07:33:16.115Z,97411.63
2022-10-26T07:36:17.560Z,97419.63
2022-10-26T07:39:19.041Z,97435.19
2022-10-26T07:42:20.467Z,97434.59
2022-10-26T07:45:21.872Z,97437.88
2022-10-26T07:48:23.340Z,97435.41
2022-10-26T07:51:24.873Z,97442.41
2022-10-26T07:54:26.326Z,97445.44
2022-10-26T07:57:30.588Z,97452.22
2022-10-26T08:00:40.982Z,97450.34
2022-10-26T08:03:45.292Z,97459.38
2022-10-26T08:06:47.302Z,97469.81
2022-10-26T08:09:48.667Z,97467.31
2022-10-26T08:12:52.149Z,97466.19
2022-10-26T08:16:00.779Z,97479.13
2022-10-26T08:19:02.287Z,97474.22
2022-10-26T08:22:03.698Z,97488.00
2022-10-26T08:25:05.383Z,97475.25
2022-10-26T08:28:06.823Z,97476.88
2022-10-26T08:31:08.271Z,97483.03
2022-10-26T08:34:09.689Z,97483.41
2022-10-26T08:37:11.197Z,97484.81
2022-10-26T08:40:15.979Z,97487.00
2022-10-26T08:43:17.316Z,97488.44
2022-10-26T08:46:18.691Z,97485.38
2022-10-26T08:49:29.631Z,97496.38
2022-10-26T08:52:38.518Z,97507.19
2022-10-26T08:58:55.528Z,97514.78
2022-10-26T09:01:56.998Z,97511.41
2022-10-26T09:04:59.388Z,97502.53
2022-10-26T09:08:07.339Z,97502.72
2022-10-26T09:11:27.702Z,97515.00
2022-10-26T09:14:47.982Z,97521.56
2022-10-26T09:17:55.525Z,97524.09
2022-10-26T09:21:00.004Z,97525.53
2022-10-26T09:24:06.046Z,97521.03
2022-10-26T09:27:16.756Z,97528.13
2022-10-26T09:30:19.965Z,97526.47
2022-10-26T09:33:24.134Z,97536.97
2022-10-26T09:36:25.516Z,97533.09
2022-10-26T09:39:36.157Z,97537.50
2022-10-26T09:42:46.928Z,97529.25
2022-10-26T09:45:52.938Z,97531.03
2022-10-26T09:48:58.098Z,97536.59
2022-10-26T09:51:59.607Z,97551.81
2022-10-26T09:55:00.993Z,97550.75
2022-10-26T09:58:03.823Z,97563.31
2022-10-26T10:01:05.273Z,97572.16
2022-10-26T10:04:12.629Z,97574.63
2022-10-26T10:07:14.264Z,97578.31
2022-10-26T10:10:17.670Z,97565.16
2022-10-26T10:13:23.552Z,97577.28
2022-10-26T10:16:25.116Z,97567.59
2022-10-26T10:19:26.531Z,97588.97
2022-10-26T10:22:27.919Z,97593.75
2022-10-26T10:25:33.629Z,97580.03
2022-10-26T10:28:35.717Z,97591.56
2022-10-26T10:31:37.460Z,97589.22
2022-10-26T10:34:38.869Z,97588.22
2022-10-26T10:37:46.883Z,97575.28
2022-10-26T10:40:53.260Z,97587.78
2022-10-26T10:44:00.689Z,97581.59
2022-10-26T10:47:06.423Z,97591.09
2022-10-26T10:50:15.654Z,97594.00
2022-10-26T10:53:24.345Z,97591.75
2022-10-26T10:56:28.781Z,97585.31
2022-10-26T10:59:56.450Z,97600.13
2022-10-26T11:03:16.805Z,97595.75
2022-10-26T11:06:22.874Z,97593.63
2022-10-26T11:09:27.265Z,97588.97
2022-10-26T11:12:31.406Z,97594.47
2022-10-26T11:15:34.761Z,97595.16
2022-10-26T11:18:39.621Z,97597.97
2022-10-26T11:21:42.042Z,97593.50
2022-10-26T11:24:43.415Z,97587.69
2022-10-26T11:27:54.806Z,97603.47
2022-10-26T11:31:02.752Z,97597.75
2022-10-26T11:34:11.384Z,97595.06
2022-10-26T11:37:21.662Z,97604.53
2022-10-26T11:40:27.688Z,97593.75
2022-10-26T11:43:38.139Z,97605.44
2022-10-26T11:46:42.988Z,97590.22
2022-10-26T11:50:03.349Z,97596.31
2022-10-26T11:53:13.696Z,97592.06
2022-10-26T11:56:21.596Z,97592.06
2022-10-26T11:59:26.989Z,97589.25
2022-10-26T12:02:33.469Z,97592.28
2022-10-26T12:05:42.642Z,97590.75
2022-10-26T12:08:48.138Z,97597.28
2022-10-26T12:11:52.281Z,97594.25
2022-10-26T12:14:59.591Z,97594.59
2022-10-26T12:18:20.305Z,97601.84
2022-10-26T12:21:29.779Z,97610.25
2022-10-26T12:24:35.496Z,97621.84
2022-10-26T12:27:39.841Z,97626.28
2022-10-26T12:30:41.361Z,97619.41
2022-10-26T12:33:50.182Z,97611.56
2022-10-26T12:36:57.396Z,97610.03
2022-10-26T12:40:17.657Z,97617.28
2022-10-26T12:43:19.019Z,97637.97
2022-10-26T12:46:26.336Z,97621.50
2022-10-26T12:49:47.495Z,97620.44
2022-10-26T12:52:51.976Z,97620.91
2022-10-26T12:56:03.462Z,97634.47
2022-10-26T12:59:12.869Z,97623.69
2022-10-26T13:02:30.397Z,97625.31
2022-10-26T13:05:31.830Z,97634.47
2022-10-26T13:08:41.451Z,97627.66
2022-10-26T13:11:46.245Z,97632.34
2022-10-26T13:15:05.479Z,97627.31
2022-10-26T13:18:06.812Z,97629.16
2022-10-26T13:21:14.951Z,97638.88
2022-10-26T13:24:16.395Z,97638.16
2022-10-26T13:27:17.812Z,97638.25
2022-10-26T13:30:36.420Z,97643.41
2022-10-26T13:33:39.722Z,97628.59
2022-10-26T13:36:41.076Z,97633.50
2022-10-26T13:39:43.627Z,97635.22
2022-10-26T13:42:47.326Z,97634.38
2022-10-26T13:45:56.150Z,97635.56
2022-10-26T13:49:05.936Z,97635.78
2022-10-26T13:52:14.773Z,97637.69
2022-10-26T13:55:42.513Z,97636.97
2022-10-26T13:58:52.412Z,97628.06
2022-10-26T14:02:26.356Z,97633.25
2022-10-26T14:05:27.974Z,97634.59
2022-10-26T14:08:32.224Z,97645.91
2022-10-26T14:11:42.980Z,97640.31
2022-10-26T14:14:44.436Z,97650.66
2022-10-26T14:17:49.805Z,97649.97
2022-10-26T14:20:59.904Z,97662.72
2022-10-26T14:24:07.594Z,97660.59
2022-10-26T14:27:19.357Z,97660.50
2022-10-26T14:30:31.568Z,97659.09
2022-10-26T14:33:33.151Z,97656.69
2022-10-26T14:36:39.960Z,97659.09
2022-10-26T14:39:46.551Z,97665.69
2022-10-26T14:42:52.563Z,97672.66
2022-10-26T14:45:54.489Z,97674.59
2022-10-26T14:48:57.364Z,97674.13
2022-10-26T14:52:00.152Z,97675.19
2022-10-26T14:55:05.198Z,97681.56
2022-10-26T14:58:08.513Z,97670.59
2022-10-26T15:01:17.211Z,97665.75
2022-10-26T15:04:27.688Z,97672.38
2022-10-26T15:07:36.921Z,97675.88
2022-10-26T15:10:38.448Z,97676.97
2022-10-26T15:13:41.941Z,97677.97
2022-10-26T15:16:50.934Z,97679.19
2022-10-26T15:19:53.578Z,97687.44
2022-10-26T15:22:56.414Z,97681.97
2022-10-26T15:25:59.564Z,97684.09
2022-10-26T15:29:01.019Z,97691.50
2022-10-26T15:35:18.840Z,97695.31
2022-10-26T15:38:20.220Z,97697.75
2022-10-26T15:41:29.570Z,97696.94
2022-10-26T15:44:30.972Z,97700.72
2022-10-26T15:47:33.574Z,97708.41
2022-10-26T15:50:36.616Z,97707.91
2022-10-26T15:53:43.387Z,97711.88
2022-10-26T15:56:44.836Z,97710.84
2022-10-26T15:59:46.245Z,97716.91
2022-10-26T16:02:47.800Z,97718.78
2022-10-26T16:05:52.366Z,97724.69
2022-10-26T16:08:55.383Z,97726.28
2022-10-26T16:12:00.883Z,97726.22
2022-10-26T16:15:06.218Z,97733.72
2022-10-26T16:18:08.247Z,97731.75
2022-10-26T16:21:13.123Z,97729.38
2022-10-26T16:24:14.660Z,97738.88
2022-10-26T16:27:16.151Z,97744.50
2022-10-26T16:30:17.918Z,97747.84
2022-10-26T16:33:19.567Z,97750.13
2022-10-26T16:36:20.999Z,97760.22
2022-10-26T16:39:22.516Z,97760.44
2022-10-26T16:42:24.219Z,97768.03
2022-10-26T16:45:25.621Z,97762.88
2022-10-26T16:48:27.119Z,97770.69
2022-10-26T16:51:30.600Z,97764.31
